sensor_id;sensor_type;location;lat;lon;timestamp;pressure;altitude;pressure_sealevel;temperature;humidity
52957;BME280;38819;42.692;23.342;2024-01-15T00:01:01;94750.13;;;-0.64;66.13
52957;BME280;38819;42.692;23.342;2024-01-15T00:03:27;94755.53;;;-0.59;65.83
52957;BME280;38819;42.692;23.342;2024-01-15T00:05:52;94746.44;;;-0.63;66.15
52957;BME280;38819;42.692;23.342;2024-01-15T00:08:17;94754.94;;;-0.49;65.47
52957;BME280;38819;42.692;23.342;2024-01-15T00:10:42;94747.34;;;-0.57;65.39
52957;BME280;38819;42.692;23.342;2024-01-15T00:13:08;94750.78;;;-0.45;65.07
52957;BME280;38819;42.692;23.342;2024-01-15T00:15:33;94736.59;;;-0.50;65.33
52957;BME280;38819;42.692;23.342;2024-01-15T00:17:58;94749.63;;;-0.49;65.26
52957;BME280;38819;42.692;23.342;2024-01-15T00:20:23;94740.88;;;-0.49;65.21
52957;BME280;38819;42.692;23.342;2024-01-15T00:22:49;94743.50;;;-0.38;65.16
52957;BME280;38819;42.692;23.342;2024-01-15T00:25:14;94748.69;;;-0.43;65.13
52957;BME280;38819;42.692;23.342;2024-01-15T00:27:39;94742.94;;;-0.40;65.17
52957;BME280;38819;42.692;23.342;2024-01-15T00:30:05;94749.84;;;-0.50;65.33
52957;BME280;38819;42.692;23.342;2024-01-15T00:32:30;94748.72;;;-0.54;65.61
52957;BME280;38819;42.692;23.342;2024-01-15T00:34:55;94745.59;;;-0.51;65.53
52957;BME280;38819;42.692;23.342;2024-01-15T00:37:20;94748.72;;;-0.54;65.61
52957;BME280;38819;42.692;23.342;2024-01-15T00:39:46;94752.75;;;-0.64;65.83
52957;BME280;38819;42.692;23.342;2024-01-15T00:42:11;94751.25;;;-0.48;65.45
52957;BME280;38819;42.692;23.342;2024-01-15T00:44:36;94741.19;;;-0.46;65.20
52957;BME280;38819;42.692;23.342;2024-01-15T00:47:02;94742.72;;;-0.50;65.37
52957;BME280;38819;42.692;23.342;2024-01-15T00:49:27;94741.22;;;-0.58;65.28
52957;BME280;38819;42.692;23.342;2024-01-15T00:51:52;94746.78;;;-0.71;65.75
52957;BME280;38819;42.692;23.342;2024-01-15T00:54:17;94751.16;;;-0.65;65.58
52957;BME280;38819;42.692;23.342;2024-01-15T00:56:43;94752.16;;;-0.54;65.32
52957;BME280;38819;42.692;23.342;2024-01-15T00:59:08;94748.19;;;-0.68;65.58
52957;BME280;38819;42.692;23.342;2024-01-15T01:01:35;94742.31;;;-0.82;66.36
52957;BME280;38819;42.692;23.342;2024-01-15T01:04:01;94749.59;;;-0.89;66.62
52957;BME280;38819;42.692;23.342;2024-01-15T01:06:26;94746.78;;;-0.71;66.28
52957;BME280;38819;42.692;23.342;2024-01-15T01:08:51;94746.22;;;-0.73;65.96
52957;BME280;38819;42.692;23.342;2024-01-15T01:11:16;94741.94;;;-0.62;66.21
52957;BME280;38819;42.692;23.342;2024-01-15T01:13:42;94734.81;;;-0.73;66.09
52957;BME280;38819;42.692;23.342;2024-01-15T01:16:07;94734.25;;;-0.87;66.65
52957;BME280;38819;42.692;23.342;2024-01-15T01:18:33;94739.19;;;-0.79;66.52
52957;BME280;38819;42.692;23.342;2024-01-15T01:20:58;94726.97;;;-0.68;66.09
52957;BME280;38819;42.692;23.342;2024-01-15T01:23:23;94734.44;;;-0.65;66.06
52957;BME280;38819;42.692;23.342;2024-01-15T01:25:49;94739.31;;;-0.86;66.94
52957;BME280;38819;42.692;23.342;2024-01-15T01:28:14;94722.59;;;-0.86;66.58
52957;BME280;38819;42.692;23.342;2024-01-15T01:30:39;94731.94;;;-0.84;66.79
52957;BME280;38819;42.692;23.342;2024-01-15T01:33:05;94723.31;;;-0.91;66.98
52957;BME280;38819;42.692;23.342;2024-01-15T01:35:30;94724.47;;;-0.87;66.92
52957;BME280;38819;42.692;23.342;2024-01-15T01:37:55;94718.47;;;-0.94;66.79
52957;BME280;38819;42.692;23.342;2024-01-15T01:40:20;94709.13;;;-0.85;66.78
52957;BME280;38819;42.692;23.342;2024-01-15T01:42:46;94711.19;;;-0.75;66.23
52957;BME280;38819;42.692;23.342;2024-01-15T01:45:11;94716.38;;;-0.80;66.15
52957;BME280;38819;42.692;23.342;2024-01-15T01:47:37;94714.06;;;-0.77;66.13
52957;BME280;38819;42.692;23.342;2024-01-15T01:50:03;94719.16;;;-0.87;66.42
52957;BME280;38819;42.692;23.342;2024-01-15T01:52:28;94708.44;;;-0.80;66.13
52957;BME280;38819;42.692;23.342;2024-01-15T01:54:53;94705.19;;;-0.94;66.30
52957;BME280;38819;42.692;23.342;2024-01-15T01:57:19;94711.94;;;-1.15;67.27
52957;BME280;38819;42.692;23.342;2024-01-15T01:59:45;94703.88;;;-1.20;67.68
52957;BME280;38819;42.692;23.342;2024-01-15T02:02:11;94709.28;;;-1.15;67.79
52957;BME280;38819;42.692;23.342;2024-01-15T02:04:36;94706.63;;;-1.03;67.11
52957;BME280;38819;42.692;23.342;2024-01-15T02:07:01;94702.31;;;-0.93;66.72
52957;BME280;38819;42.692;23.342;2024-01-15T02:09:27;94700.97;;;-1.07;67.33
52957;BME280;38819;42.692;23.342;2024-01-15T02:11:52;94696.38;;;-1.12;67.55
52957;BME280;38819;42.692;23.342;2024-01-15T02:14:18;94688.06;;;-1.03;67.11
52957;BME280;38819;42.692;23.342;2024-01-15T02:16:43;94688.16;;;-0.98;66.96
52957;BME280;38819;42.692;23.342;2024-01-15T02:19:14;94682.19;;;-1.17;67.54
52957;BME280;38819;42.692;23.342;2024-01-15T02:21:39;94682.19;;;-1.17;67.79
52957;BME280;38819;42.692;23.342;2024-01-15T02:24:05;94661.56;;;-1.15;67.62
52957;BME280;38819;42.692;23.342;2024-01-15T02:26:30;94667.78;;;-1.09;67.75
52957;BME280;38819;42.692;23.342;2024-01-15T02:28:55;94640.25;;;-1.08;67.73
52957;BME280;38819;42.692;23.342;2024-01-15T02:31:21;94631.25;;;-1.07;67.75
52957;BME280;38819;42.692;23.342;2024-01-15T02:33:46;94630.53;;;-1.03;67.33
52957;BME280;38819;42.692;23.342;2024-01-15T02:36:11;94624.34;;;-1.08;67.75
52957;BME280;38819;42.692;23.342;2024-01-15T02:38:37;94639.88;;;-1.00;67.61
52957;BME280;38819;42.692;23.342;2024-01-15T02:41:02;94639.88;;;-1.00;67.39
52957;BME280;38819;42.692;23.342;2024-01-15T02:43:27;94632.75;;;-1.12;67.50
52957;BME280;38819;42.692;23.342;2024-01-15T02:45:53;94634.59;;;-1.12;67.74
52957;BME280;38819;42.692;23.342;2024-01-15T02:48:18;94634.94;;;-1.08;67.78
52957;BME280;38819;42.692;23.342;2024-01-15T02:50:43;94623.75;;;-1.10;67.25
52957;BME280;38819;42.692;23.342;2024-01-15T02:53:08;94633.56;;;-1.11;67.11
52957;BME280;38819;42.692;23.342;2024-01-15T02:55:34;94636.78;;;-1.09;66.54
52957;BME280;38819;42.692;23.342;2024-01-15T02:57:59;94630.88;;;-0.99;65.74
52957;BME280;38819;42.692;23.342;2024-01-15T03:00:25;94628.13;;;-1.04;65.56
52957;BME280;38819;42.692;23.342;2024-01-15T03:02:50;94635.88;;;-1.15;65.65
52957;BME280;38819;42.692;23.342;2024-01-15T03:05:15;94635.97;;;-1.09;65.28
52957;BME280;38819;42.692;23.342;2024-01-15T03:07:41;94639.44;;;-1.21;65.28
52957;BME280;38819;42.692;23.342;2024-01-15T03:10:06;94640.38;;;-1.15;65.25
52957;BME280;38819;42.692;23.342;2024-01-15T03:12:32;94644.94;;;-1.10;65.08
52957;BME280;38819;42.692;23.342;2024-01-15T03:14:57;94635.63;;;-1.13;65.30
52957;BME280;38819;42.692;23.342;2024-01-15T03:17:22;94621.59;;;-1.14;65.43
52957;BME280;38819;42.692;23.342;2024-01-15T03:19:48;94621.25;;;-1.29;65.43
52957;BME280;38819;42.692;23.342;2024-01-15T03:22:14;94625.19;;;-1.32;65.17
52957;BME280;38819;42.692;23.342;2024-01-15T03:24:40;94621.47;;;-1.31;64.90
52957;BME280;38819;42.692;23.342;2024-01-15T03:27:05;94622.88;;;-1.28;64.57
52957;BME280;38819;42.692;23.342;2024-01-15T03:29:30;94614.13;;;-1.28;64.54
52957;BME280;38819;42.692;23.342;2024-01-15T03:31:55;94616.06;;;-1.24;64.08
52957;BME280;38819;42.692;23.342;2024-01-15T03:34:21;94606.28;;;-1.23;64.16
52957;BME280;38819;42.692;23.342;2024-01-15T03:36:46;94610.28;;;-1.21;64.00
52957;BME280;38819;42.692;23.342;2024-01-15T03:39:11;94609.13;;;-1.13;63.83
52957;BME280;38819;42.692;23.342;2024-01-15T03:41:36;94603.41;;;-1.22;64.25
52957;BME280;38819;42.692;23.342;2024-01-15T03:44:02;94607.94;;;-1.05;64.17
52957;BME280;38819;42.692;23.342;2024-01-15T03:46:27;94606.25;;;-1.12;64.31
52957;BME280;38819;42.692;23.342;2024-01-15T03:48:52;94603.94;;;-1.08;64.53
52957;BME280;38819;42.692;23.342;2024-01-15T03:51:18;94608.13;;;-0.83;64.19
52957;BME280;38819;42.692;23.342;2024-01-15T03:53:43;94610.06;;;-0.79;64.01
52957;BME280;38819;42.692;23.342;2024-01-15T03:56:08;94609.72;;;-0.82;64.04
52957;BME280;38819;42.692;23.342;2024-01-15T03:58:34;94598.09;;;-0.81;64.12
52957;BME280;38819;42.692;23.342;2024-01-15T04:00:59;94605.81;;;-0.80;64.22
52957;BME280;38819;42.692;23.342;2024-01-15T04:03:24;94604.66;;;-0.84;64.20
52957;BME280;38819;42.692;23.342;2024-01-15T04:05:49;94596.72;;;-0.84;64.20
52957;BME280;38819;42.692;23.342;2024-01-15T04:08:15;94583.22;;;-0.82;64.49
52957;BME280;38819;42.692;23.342;2024-01-15T04:10:40;94584.66;;;-0.63;63.45
52957;BME280;38819;42.692;23.342;2024-01-15T04:13:05;94592.00;;;-0.82;63.36
52957;BME280;38819;42.692;23.342;2024-01-15T04:15:30;94586.84;;;-0.88;63.51
52957;BME280;38819;42.692;23.342;2024-01-15T04:17:56;94587.53;;;-0.93;63.56
52957;BME280;38819;42.692;23.342;2024-01-15T04:20:21;94591.25;;;-0.77;63.51
52957;BME280;38819;42.692;23.342;2024-01-15T04:22:46;94594.16;;;-0.79;63.29
52957;BME280;38819;42.692;23.342;2024-01-15T04:25:11;94576.03;;;-0.70;63.34
52957;BME280;38819;42.692;23.342;2024-01-15T04:27:37;94579.56;;;-0.64;63.53
52957;BME280;38819;42.692;23.342;2024-01-15T04:30:02;94588.28;;;-0.81;63.78
52957;BME280;38819;42.692;23.342;2024-01-15T04:32:27;94584.41;;;-0.90;63.74
52957;BME280;38819;42.692;23.342;2024-01-15T04:34:52;94593.06;;;-0.95;63.77
52957;BME280;38819;42.692;23.342;2024-01-15T04:37:18;94583.97;;;-0.99;63.92
52957;BME280;38819;42.692;23.342;2024-01-15T04:39:43;94586.25;;;-0.90;63.78
52957;BME280;38819;42.692;23.342;2024-01-15T04:42:08;94586.06;;;-1.01;63.96
52957;BME280;38819;42.692;23.342;2024-01-15T04:44:33;94586.38;;;-0.97;63.99
52957;BME280;38819;42.692;23.342;2024-01-15T04:46:59;94577.44;;;-1.08;64.48
52957;BME280;38819;42.692;23.342;2024-01-15T04:49:24;94586.41;;;-1.09;64.48
52957;BME280;38819;42.692;23.342;2024-01-15T04:51:52;94572.38;;;-1.09;64.22
52957;BME280;38819;42.692;23.342;2024-01-15T04:54:17;94581.34;;;-1.10;64.48
52957;BME280;38819;42.692;23.342;2024-01-15T04:56:43;94579.72;;;-1.00;64.18
52957;BME280;38819;42.692;23.342;2024-01-15T04:59:09;94565.91;;;-1.02;64.33
52957;BME280;38819;42.692;23.342;2024-01-15T05:01:35;94560.75;;;-1.08;64.62
52957;BME280;38819;42.692;23.342;2024-01-15T05:04:00;94566.13;;;-1.03;64.56
52957;BME280;38819;42.692;23.342;2024-01-15T05:06:25;94572.00;;;-1.01;64.70
52957;BME280;38819;42.692;23.342;2024-01-15T05:08:51;94567.63;;;-1.07;65.14
52957;BME280;38819;42.692;23.342;2024-01-15T05:11:16;94567.53;;;-1.13;64.99
52957;BME280;38819;42.692;23.342;2024-01-15T05:13:41;94562.56;;;-1.09;65.37
52957;BME280;38819;42.692;23.342;2024-01-15T05:16:06;94549.66;;;-1.05;65.06
52957;BME280;38819;42.692;23.342;2024-01-15T05:18:32;94547.94;;;-1.12;64.76
52957;BME280;38819;42.692;23.342;2024-01-15T05:20:57;94554.19;;;-1.18;65.08
52957;BME280;38819;42.692;23.342;2024-01-15T05:23:22;94549.03;;;-1.24;64.97
52957;BME280;38819;42.692;23.342;2024-01-15T05:25:47;94551.56;;;-1.29;65.27
52957;BME280;38819;42.692;23.342;2024-01-15T05:28:13;94567.25;;;-1.28;65.32
52957;BME280;38819;42.692;23.342;2024-01-15T05:30:38;94564.47;;;-1.21;65.28
52957;BME280;38819;42.692;23.342;2024-01-15T05:33:04;94566.03;;;-1.08;64.95
52957;BME280;38819;42.692;23.342;2024-01-15T05:35:29;94562.00;;;-1.11;64.45
52957;BME280;38819;42.692;23.342;2024-01-15T05:37:54;94542.66;;;-1.12;64.26
52957;BME280;38819;42.692;23.342;2024-01-15T05:40:20;94540.81;;;-1.11;64.35
52957;BME280;38819;42.692;23.342;2024-01-15T05:42:45;94546.09;;;-1.11;64.31
52957;BME280;38819;42.692;23.342;2024-01-15T05:45:10;94547.84;;;-1.17;64.46
52957;BME280;38819;42.692;23.342;2024-01-15T05:47:35;94543.88;;;-1.02;63.96
52957;BME280;38819;42.692;23.342;2024-01-15T05:50:01;94541.47;;;-1.04;64.04
52957;BME280;38819;42.692;23.342;2024-01-15T05:52:27;94529.81;;;-1.03;63.99
52957;BME280;38819;42.692;23.342;2024-01-15T05:54:52;94527.50;;;-0.99;63.97
52957;BME280;38819;42.692;23.342;2024-01-15T05:57:17;94528.59;;;-0.83;63.79
52957;BME280;38819;42.692;23.342;2024-01-15T05:59:44;94522.19;;;-0.70;63.58
52957;BME280;38819;42.692;23.342;2024-01-15T06:02:09;94518.34;;;-0.63;63.32
52957;BME280;38819;42.692;23.342;2024-01-15T06:04:34;94557.56;;;-0.65;63.64
52957;BME280;38819;42.692;23.342;2024-01-15T06:06:59;94546.72;;;-0.63;63.89
52957;BME280;38819;42.692;23.342;2024-01-15T06:09:25;94548.78;;;-0.65;64.52
52957;BME280;38819;42.692;23.342;2024-01-15T06:11:50;94539.00;;;-0.65;64.24
52957;BME280;38819;42.692;23.342;2024-01-15T06:14:15;94545.66;;;-0.62;64.43
52957;BME280;38819;42.692;23.342;2024-01-15T06:16:40;94526.56;;;-0.47;64.23
52957;BME280;38819;42.692;23.342;2024-01-15T06:19:06;94533.06;;;-0.55;64.26
52957;BME280;38819;42.692;23.342;2024-01-15T06:21:31;94530.09;;;-0.42;64.08
52957;BME280;38819;42.692;23.342;2024-01-15T06:23:56;94525.03;;;-0.43;63.83
52957;BME280;38819;42.692;23.342;2024-01-15T06:26:22;94521.25;;;-0.47;64.11
52957;BME280;38819;42.692;23.342;2024-01-15T06:28:47;94519.91;;;-0.50;64.57
52957;BME280;38819;42.692;23.342;2024-01-15T06:31:12;94519.00;;;-0.39;64.45
52957;BME280;38819;42.692;23.342;2024-01-15T06:33:38;94535.34;;;-0.30;63.90
52957;BME280;38819;42.692;23.342;2024-01-15T06:36:03;94530.50;;;-0.33;63.40
52957;BME280;38819;42.692;23.342;2024-01-15T06:38:28;94533.16;;;-0.33;63.57
52957;BME280;38819;42.692;23.342;2024-01-15T06:40:54;94537.00;;;-0.24;63.44
52957;BME280;38819;42.692;23.342;2024-01-15T06:43:19;94531.84;;;-0.30;63.95
52957;BME280;38819;42.692;23.342;2024-01-15T06:45:44;94535.97;;;-0.23;63.85
52957;BME280;38819;42.692;23.342;2024-01-15T06:48:09;94536.69;;;-0.27;64.50
52957;BME280;38819;42.692;23.342;2024-01-15T06:50:35;94533.88;;;-0.21;64.59
52957;BME280;38819;42.692;23.342;2024-01-15T06:53:00;94530.81;;;0.05;64.07
52957;BME280;38819;42.692;23.342;2024-01-15T06:55:25;94531.63;;;0.05;63.96
52957;BME280;38819;42.692;23.342;2024-01-15T06:57:51;94539.25;;;0.02;63.86
52957;BME280;38819;42.692;23.342;2024-01-15T07:00:17;94545.22;;;0.09;63.42
52957;BME280;38819;42.692;23.342;2024-01-15T07:02:42;94553.03;;;0.15;63.25
52957;BME280;38819;42.692;23.342;2024-01-15T07:05:07;94551.84;;;0.28;63.04
52957;BME280;38819;42.692;23.342;2024-01-15T07:07:33;94548.31;;;0.23;63.01
52957;BME280;38819;42.692;23.342;2024-01-15T07:09:58;94546.88;;;0.32;62.99
52957;BME280;38819;42.692;23.342;2024-01-15T07:12:24;94537.78;;;0.28;63.02
52957;BME280;38819;42.692;23.342;2024-01-15T07:14:49;94545.03;;;0.32;63.29
52957;BME280;38819;42.692;23.342;2024-01-15T07:17:14;94525.28;;;0.45;63.20
52957;BME280;38819;42.692;23.342;2024-01-15T07:19:40;94544.75;;;0.51;63.44
52957;BME280;38819;42.692;23.342;2024-01-15T07:22:06;94545.03;;;0.54;63.21
52957;BME280;38819;42.692;23.342;2024-01-15T07:24:31;94543.66;;;0.69;62.87
52957;BME280;38819;42.692;23.342;2024-01-15T07:26:56;94546.91;;;0.76;62.90
52957;BME280;38819;42.692;23.342;2024-01-15T07:29:21;94539.50;;;0.78;63.15
52957;BME280;38819;42.692;23.342;2024-01-15T07:31:47;94528.72;;;0.90;62.97
52957;BME280;38819;42.692;23.342;2024-01-15T07:34:13;94520.53;;;0.69;63.30
52957;BME280;38819;42.692;23.342;2024-01-15T07:36:38;94518.91;;;0.68;63.67
52957;BME280;38819;42.692;23.342;2024-01-15T07:39:03;94529.88;;;0.72;63.22
52957;BME280;38819;42.692;23.342;2024-01-15T07:41:29;94535.66;;;0.69;63.19
52957;BME280;38819;42.692;23.342;2024-01-15T07:43:54;94537.06;;;0.77;63.25
52957;BME280;38819;42.692;23.342;2024-01-15T07:46:19;94520.88;;;0.78;63.24
52957;BME280;38819;42.692;23.342;2024-01-15T07:48:45;94541.47;;;0.88;63.17
52957;BME280;38819;42.692;23.342;2024-01-15T07:51:10;94535.91;;;0.89;62.98
52957;BME280;38819;42.692;23.342;2024-01-15T07:53:35;94549.00;;;0.96;63.08
52957;BME280;38819;42.692;23.342;2024-01-15T07:56:00;94551.47;;;1.03;62.82
52957;BME280;38819;42.692;23.342;2024-01-15T07:58:26;94548.53;;;0.99;62.40
52957;BME280;38819;42.692;23.342;2024-01-15T08:00:51;94540.72;;;0.92;63.04
52957;BME280;38819;42.692;23.342;2024-01-15T08:03:17;94507.56;;;1.00;63.23
52957;BME280;38819;42.692;23.342;2024-01-15T08:05:42;94501.81;;;1.08;62.84
52957;BME280;38819;42.692;23.342;2024-01-15T08:08:07;94505.34;;;1.14;63.01
52957;BME280;38819;42.692;23.342;2024-01-15T08:10:33;94522.72;;;1.27;62.77
52957;BME280;38819;42.692;23.342;2024-01-15T08:12:58;94531.19;;;1.19;62.41
52957;BME280;38819;42.692;23.342;2024-01-15T08:15:23;94535.28;;;1.32;62.68
52957;BME280;38819;42.692;23.342;2024-01-15T08:17:48;94530.25;;;1.35;62.22
52957;BME280;38819;42.692;23.342;2024-01-15T08:20:13;94540.47;;;1.43;62.08
52957;BME280;38819;42.692;23.342;2024-01-15T08:22:40;94536.47;;;1.41;62.00
52957;BME280;38819;42.692;23.342;2024-01-15T08:25:06;94539.41;;;1.44;62.34
52957;BME280;38819;42.692;23.342;2024-01-15T08:27:31;94542.97;;;1.55;62.02
52957;BME280;38819;42.692;23.342;2024-01-15T08:29:56;94534.38;;;1.48;61.55
52957;BME280;38819;42.692;23.342;2024-01-15T08:32:22;94536.22;;;1.42;61.85
52957;BME280;38819;42.692;23.342;2024-01-15T08:34:47;94525.28;;;1.39;62.03
52957;BME280;38819;42.692;23.342;2024-01-15T08:37:14;94511.47;;;1.47;62.21
52957;BME280;38819;42.692;23.342;2024-01-15T08:39:39;94506.81;;;1.59;61.53
52957;BME280;38819;42.692;23.342;2024-01-15T08:42:05;94512.69;;;1.61;61.45
52957;BME280;38819;42.692;23.342;2024-01-15T08:44:30;94508.47;;;1.65;61.26
52957;BME280;38819;42.692;23.342;2024-01-15T08:46:55;94507.06;;;1.58;61.57
52957;BME280;38819;42.692;23.342;2024-01-15T08:49:21;94495.91;;;1.61;61.87
52957;BME280;38819;42.692;23.342;2024-01-15T08:51:46;94491.72;;;1.70;61.60
52957;BME280;38819;42.692;23.342;2024-01-15T08:54:12;94497.41;;;1.79;61.73
52957;BME280;38819;42.692;23.342;2024-01-15T08:56:38;94496.59;;;1.83;61.26
52957;BME280;38819;42.692;23.342;2024-01-15T08:59:04;94488.63;;;1.83;60.92
52957;BME280;38819;42.692;23.342;2024-01-15T09:01:29;94490.03;;;1.91;60.73
52957;BME280;38819;42.692;23.342;2024-01-15T09:03:55;94469.31;;;2.03;60.84
52957;BME280;38819;42.692;23.342;2024-01-15T09:06:21;94462.72;;;2.11;60.43
52957;BME280;38819;42.692;23.342;2024-01-15T09:08:46;94467.84;;;2.23;60.14
52957;BME280;38819;42.692;23.342;2024-01-15T09:11:12;94457.53;;;2.42;59.82
52957;BME280;38819;42.692;23.342;2024-01-15T09:13:37;94454.88;;;2.42;59.12
52957;BME280;38819;42.692;23.342;2024-01-15T09:16:03;94439.22;;;2.56;58.28
52957;BME280;38819;42.692;23.342;2024-01-15T09:18:28;94420.84;;;2.65;58.37
52957;BME280;38819;42.692;23.342;2024-01-15T09:20:54;94418.47;;;2.68;58.17
52957;BME280;38819;42.692;23.342;2024-01-15T09:23:19;94420.81;;;2.49;57.72
52957;BME280;38819;42.692;23.342;2024-01-15T09:25:45;94423.50;;;2.54;57.69
52957;BME280;38819;42.692;23.342;2024-01-15T09:28:10;94419.47;;;2.57;58.02
52957;BME280;38819;42.692;23.342;2024-01-15T09:30:35;94409.09;;;2.60;58.65
52957;BME280;38819;42.692;23.342;2024-01-15T09:33:01;94417.34;;;2.54;58.66
52957;BME280;38819;42.692;23.342;2024-01-15T09:35:26;94420.03;;;2.59;58.43
52957;BME280;38819;42.692;23.342;2024-01-15T09:37:52;94402.03;;;2.29;59.40
52957;BME280;38819;42.692;23.342;2024-01-15T09:40:17;94400.31;;;2.02;60.05
52957;BME280;38819;42.692;23.342;2024-01-15T09:42:43;94395.00;;;2.02;60.75
52957;BME280;38819;42.692;23.342;2024-01-15T09:45:09;94394.50;;;2.10;60.67
52957;BME280;38819;42.692;23.342;2024-01-15T09:47:35;94385.97;;;2.08;60.64
52957;BME280;38819;42.692;23.342;2024-01-15T09:50:01;94394.75;;;2.03;60.71
52957;BME280;38819;42.692;23.342;2024-01-15T09:52:28;94378.75;;;2.03;60.35
52957;BME280;38819;42.692;23.342;2024-01-15T09:54:55;94369.84;;;1.77;61.40
52957;BME280;38819;42.692;23.342;2024-01-15T09:57:21;94361.88;;;1.77;61.35
52957;BME280;38819;42.692;23.342;2024-01-15T09:59:46;94344.47;;;1.59;62.17
52957;BME280;38819;42.692;23.342;2024-01-15T10:02:12;94348.19;;;1.63;62.32
52957;BME280;38819;42.692;23.342;2024-01-15T10:04:39;94345.34;;;1.75;62.22
52957;BME280;38819;42.692;23.342;2024-01-15T10:07:04;94368.81;;;1.83;62.23
52957;BME280;38819;42.692;23.342;2024-01-15T10:09:30;94364.59;;;1.88;61.77
52957;BME280;38819;42.692;23.342;2024-01-15T10:11:55;94343.00;;;1.84;62.21
52957;BME280;38819;42.692;23.342;2024-01-15T10:14:20;94342.22;;;1.94;62.14
52957;BME280;38819;42.692;23.342;2024-01-15T10:16:46;94332.94;;;2.01;61.94
52957;BME280;38819;42.692;23.342;2024-01-15T10:19:11;94324.16;;;2.01;61.52
52957;BME280;38819;42.692;23.342;2024-01-15T10:21:36;94314.81;;;1.98;61.70
52957;BME280;38819;42.692;23.342;2024-01-15T10:24:02;94319.38;;;2.03;61.73
52957;BME280;38819;42.692;23.342;2024-01-15T10:26:27;94311.94;;;2.10;61.45
52957;BME280;38819;42.692;23.342;2024-01-15T10:28:53;94323.97;;;2.23;61.49
52957;BME280;38819;42.692;23.342;2024-01-15T10:31:18;94301.38;;;2.36;61.01
52957;BME280;38819;42.692;23.342;2024-01-15T10:33:44;94294.97;;;2.42;60.74
52957;BME280;38819;42.692;23.342;2024-01-15T10:36:10;94311.25;;;2.46;60.59
52957;BME280;38819;42.692;23.342;2024-01-15T10:38:36;94300.28;;;2.42;60.45
52957;BME280;38819;42.692;23.342;2024-01-15T10:41:01;94284.31;;;2.42;60.28
52957;BME280;38819;42.692;23.342;2024-01-15T10:43:27;94294.41;;;2.25;61.09
52957;BME280;38819;42.692;23.342;2024-01-15T10:45:52;94300.28;;;2.42;60.78
52957;BME280;38819;42.692;23.342;2024-01-15T10:48:18;94299.00;;;2.50;60.43
52957;BME280;38819;42.692;23.342;2024-01-15T10:50:44;94285.69;;;2.65;60.07
52957;BME280;38819;42.692;23.342;2024-01-15T10:53:11;94282.47;;;2.78;59.81
52957;BME280;38819;42.692;23.342;2024-01-15T10:55:37;94273.16;;;2.86;58.83
52957;BME280;38819;42.692;23.342;2024-01-15T10:58:02;94265.69;;;2.93;59.40
52957;BME280;38819;42.692;23.342;2024-01-15T11:00:28;94272.88;;;3.03;57.99
52957;BME280;38819;42.692;23.342;2024-01-15T11:02:54;94273.94;;;3.18;57.95
52957;BME280;38819;42.692;23.342;2024-01-15T11:05:22;94263.50;;;3.37;57.20
52957;BME280;38819;42.692;23.342;2024-01-15T11:07:48;94256.53;;;3.41;56.76
52957;BME280;38819;42.692;23.342;2024-01-15T11:10:47;94263.75;;;3.40;56.22
52957;BME280;38819;42.692;23.342;2024-01-15T11:13:08;94261.84;;;3.61;56.03
52957;BME280;38819;42.692;23.342;2024-01-15T11:15:33;94251.66;;;3.68;56.12
52957;BME280;38819;42.692;23.342;2024-01-15T11:18:18;94234.84;;;3.73;55.37
52957;BME280;38819;42.692;23.342;2024-01-15T11:21:13;94233.44;;;3.81;55.12
52957;BME280;38819;42.692;23.342;2024-01-15T11:23:47;94243.03;;;3.87;55.32
52957;BME280;38819;42.692;23.342;2024-01-15T11:27:13;94226.19;;;3.97;55.03
52957;BME280;38819;42.692;23.342;2024-01-15T11:29:08;94228.31;;;4.00;54.86
52957;BME280;38819;42.692;23.342;2024-01-15T11:34:05;94227.66;;;4.18;54.59
52957;BME280;38819;42.692;23.342;2024-01-15T11:37:04;94228.34;;;4.34;54.10
52957;BME280;38819;42.692;23.342;2024-01-15T11:41:57;94224.16;;;4.62;54.02
52957;BME280;38819;42.692;23.342;2024-01-15T11:44:23;94201.13;;;4.67;53.63
52957;BME280;38819;42.692;23.342;2024-01-15T11:49:26;94211.78;;;4.72;53.78
52957;BME280;38819;42.692;23.342;2024-01-15T11:51:59;94218.13;;;4.81;53.45
52957;BME280;38819;42.692;23.342;2024-01-15T11:54:25;94206.03;;;4.89;53.63
52957;BME280;38819;42.692;23.342;2024-01-15T11:56:54;94196.06;;;4.99;53.57
52957;BME280;38819;42.692;23.342;2024-01-15T11:59:21;94188.75;;;5.05;53.26
52957;BME280;38819;42.692;23.342;2024-01-15T12:01:46;94179.28;;;5.18;53.07
52957;BME280;38819;42.692;23.342;2024-01-15T12:04:11;94183.97;;;5.02;52.76
52957;BME280;38819;42.692;23.342;2024-01-15T12:06:38;94184.41;;;5.09;53.21
52957;BME280;38819;42.692;23.342;2024-01-15T12:09:06;94185.09;;;4.96;53.34
52957;BME280;38819;42.692;23.342;2024-01-15T12:11:32;94184.97;;;5.11;52.88
52957;BME280;38819;42.692;23.342;2024-01-15T12:13:58;94187.03;;;5.14;53.06
52957;BME280;38819;42.692;23.342;2024-01-15T12:16:26;94188.31;;;5.22;53.57
52957;BME280;38819;42.692;23.342;2024-01-15T12:21:35;94163.56;;;5.11;53.02
52957;BME280;38819;42.692;23.342;2024-01-15T12:24:00;94159.84;;;5.07;53.34
52957;BME280;38819;42.692;23.342;2024-01-15T12:26:26;94167.19;;;4.96;54.03
52957;BME280;38819;42.692;23.342;2024-01-15T12:28:51;94166.56;;;5.05;54.08
52957;BME280;38819;42.692;23.342;2024-01-15T12:31:16;94149.28;;;4.92;53.85
52957;BME280;38819;42.692;23.342;2024-01-15T12:33:41;94151.97;;;4.92;53.68
52957;BME280;38819;42.692;23.342;2024-01-15T12:36:07;94158.03;;;4.97;53.39
52957;BME280;38819;42.692;23.342;2024-01-15T12:38:32;94143.53;;;5.04;53.59
52957;BME280;38819;42.692;23.342;2024-01-15T12:40:57;94148.22;;;5.17;53.80
52957;BME280;38819;42.692;23.342;2024-01-15T12:43:23;94143.38;;;5.19;53.52
52957;BME280;38819;42.692;23.342;2024-01-15T12:45:48;94144.97;;;5.20;53.33
52957;BME280;38819;42.692;23.342;2024-01-15T12:48:14;94144.22;;;5.14;54.09
52957;BME280;38819;42.692;23.342;2024-01-15T12:50:42;94140.88;;;5.28;53.81
52957;BME280;38819;42.692;23.342;2024-01-15T12:53:07;94143.78;;;5.31;53.66
52957;BME280;38819;42.692;23.342;2024-01-15T12:55:33;94135.28;;;5.48;53.52
52957;BME280;38819;42.692;23.342;2024-01-15T12:57:59;94138.75;;;5.49;53.69